Time;durP1;ratioP1;P1;durP2;ratioP2;P2;SDS_P1;SDS_P2;PMS_P1;PMS_P2;Temp;Humidity;BMP_temperature;BMP_pressure;BME280_temperature;BME280_humidity;BME280_pressure;Samples;Min_cycle;Max_cycle;Signal;HPM_P1;HPM_P2
2023/11/12 00:00:04;;;;;;;1.65;1.65;;;6.00;99.90;;;;;;5077839;28;20202;-81
2023/11/12 00:02:31;;;;;;;2.25;1.13;;;6.10;99.90;;;;;;5078564;28;20210;-82
2023/11/12 00:04:59;;;;;;;6.47;3.08;;;6.10;99.90;;;;;;5079808;28;20290;-79
2023/11/12 00:07:26;;;;;;;3.58;3.28;;;6.10;99.90;;;;;;5079350;28;20194;-80
2023/11/12 00:09:53;;;;;;;0.98;0.88;;;6.10;99.90;;;;;;5078951;28;20195;-81
2023/11/12 00:12:22;;;;;;;2.10;0.98;;;6.10;99.90;;;;;;5080038;28;20211;-80
2023/11/12 00:14:49;;;;;;;0.50;0.40;;;6.10;99.90;;;;;;5078593;28;20219;-77
2023/11/12 00:17:16;;;;;;;2.03;1.92;;;6.20;99.90;;;;;;5076777;28;20281;-77
2023/11/12 00:19:43;;;;;;;1.60;1.50;;;6.20;99.90;;;;;;5070014;28;20195;-79
2023/11/12 00:22:12;;;;;;;1.95;1.73;;;6.20;99.90;;;;;;5079278;28;20719;-80
2023/11/12 00:24:38;;;;;;;1.77;1.52;;;6.10;99.90;;;;;;5079209;28;20754;-80
2023/11/12 00:27:05;;;;;;;0.80;0.80;;;6.20;99.90;;;;;;5080122;28;20198;-79
2023/11/12 00:29:33;;;;;;;15.07;4.20;;;6.20;99.90;;;;;;5079446;28;20202;-80
2023/11/12 00:32:00;;;;;;;0.88;0.85;;;6.20;99.90;;;;;;5079355;28;20621;-80
2023/11/12 00:34:27;;;;;;;3.13;1.83;;;6.20;99.90;;;;;;5079179;28;20197;-82
2023/11/12 00:36:54;;;;;;;1.52;1.42;;;6.20;99.90;;;;;;5079202;28;20202;-83
2023/11/12 00:39:22;;;;;;;0.98;0.98;;;6.20;99.90;;;;;;5079836;28;20262;-80
2023/11/12 00:41:49;;;;;;;1.88;1.77;;;6.20;99.90;;;;;;5078954;28;20195;-80
2023/11/12 00:44:17;;;;;;;7.55;2.97;;;6.20;99.90;;;;;;5079144;28;20198;-82
2023/11/12 00:46:44;;;;;;;0.50;0.50;;;6.20;99.90;;;;;;5080552;28;20209;-84
2023/11/12 00:49:11;;;;;;;6.25;5.70;;;6.20;99.90;;;;;;5079095;28;20221;-82
2023/11/12 00:51:37;;;;;;;1.02;0.93;;;6.10;99.90;;;;;;5079515;28;20194;-80
2023/11/12 00:54:05;;;;;;;1.10;1.00;;;6.20;99.90;;;;;;5079154;28;20210;-83
2023/11/12 00:56:33;;;;;;;0.60;0.60;;;6.20;99.90;;;;;;5079706;28;20266;-81
2023/11/12 00:59:00;;;;;;;1.13;1.13;;;6.20;99.90;;;;;;5080820;28;20236;-80
2023/11/12 01:01:26;;;;;;;3.35;3.00;;;6.20;99.90;;;;;;5080515;28;20198;-80
2023/11/12 01:03:53;;;;;;;2.60;2.40;;;6.20;99.90;;;;;;5080107;28;20689;-82
2023/11/12 01:06:20;;;;;;;1.77;1.67;;;6.20;99.90;;;;;;5079582;28;20281;-80
2023/11/12 01:08:47;;;;;;;0.50;0.50;;;6.20;99.90;;;;;;5071974;28;20293;-80
2023/11/12 01:11:13;;;;;;;1.95;1.73;;;6.20;99.90;;;;;;5079699;28;20290;-81
2023/11/12 01:13:42;;;;;;;1.55;1.48;;;6.20;99.90;;;;;;5078604;28;20254;-79
2023/11/12 01:16:09;;;;;;;0.75;0.75;;;6.10;99.90;;;;;;5079068;28;20211;-80
2023/11/12 01:18:40;;;;;;;4.15;2.28;;;6.10;99.90;;;;;;5079650;28;20198;-80
2023/11/12 01:21:07;;;;;;;0.95;0.63;;;6.10;99.90;;;;;;5079740;28;20230;-83
2023/11/12 01:23:34;;;;;;;0.82;0.82;;;6.10;99.90;;;;;;5079553;28;20253;-81
2023/11/12 01:26:00;;;;;;;0.70;0.70;;;6.10;99.90;;;;;;5080213;28;20289;-81
2023/11/12 01:28:29;;;;;;;3.47;2.90;;;6.10;99.90;;;;;;5079325;28;20226;-80
2023/11/12 01:31:00;;;;;;;1.30;1.20;;;6.10;99.90;;;;;;5078486;28;20195;-78
2023/11/12 01:33:28;;;;;;;0.85;0.85;;;6.10;99.90;;;;;;5078772;28;20768;-81
2023/11/12 01:35:55;;;;;;;2.63;1.45;;;6.10;99.90;;;;;;5079567;28;20215;-81
2023/11/12 01:38:22;;;;;;;1.08;0.75;;;6.10;99.90;;;;;;5078523;28;20194;-79
2023/11/12 01:40:48;;;;;;;0.65;0.65;;;6.10;99.90;;;;;;5071317;28;20293;-81
2023/11/12 01:43:16;;;;;;;1.40;1.30;;;6.10;99.90;;;;;;5079365;28;20240;-80
2023/11/12 01:45:43;;;;;;;0.50;0.40;;;6.10;99.90;;;;;;5078848;28;20692;-81
2023/11/12 01:48:13;;;;;;;1.27;1.27;;;6.10;99.90;;;;;;5078305;28;20195;-80
2023/11/12 01:50:41;;;;;;;1.90;1.75;;;6.10;99.90;;;;;;5078531;28;20210;-79
2023/11/12 01:53:09;;;;;;;0.60;0.60;;;6.10;99.90;;;;;;5078845;28;20249;-81
2023/11/12 01:55:36;;;;;;;3.75;0.82;;;6.10;99.90;;;;;;5079170;28;20206;-81
2023/11/12 01:58:04;;;;;;;1.90;1.40;;;6.10;99.90;;;;;;5078103;28;20224;-80
2023/11/12 02:00:31;;;;;;;0.50;0.50;;;6.10;99.90;;;;;;5078954;28;20198;-81
2023/11/12 02:02:58;;;;;;;0.50;0.50;;;6.10;99.90;;;;;;5079324;28;20218;-82
2023/11/12 02:05:26;;;;;;;1.23;0.95;;;6.10;99.90;;;;;;5079257;28;20258;-80
2023/11/12 02:07:53;;;;;;;0.90;0.90;;;6.10;99.90;;;;;;5071405;28;20194;-78
2023/11/12 02:10:20;;;;;;;2.15;1.80;;;6.10;99.90;;;;;;5079044;28;20266;-81
2023/11/12 02:12:48;;;;;;;0.60;0.60;;;6.10;99.90;;;;;;5078764;28;20254;-77
2023/11/12 02:15:18;;;;;;;0.88;0.57;;;6.10;99.90;;;;;;5078202;28;20658;-81
2023/11/12 02:17:45;;;;;;;0.50;0.40;;;6.10;99.90;;;;;;5078681;28;20209;-82
2023/11/12 02:20:15;;;;;;;6.95;3.67;;;6.10;99.90;;;;;;5080358;28;20281;-82
2023/11/12 02:22:43;;;;;;;3.90;1.45;;;6.10;99.90;;;;;;5080194;28;20225;-80
2023/11/12 02:25:13;;;;;;;2.92;2.28;;;6.10;99.90;;;;;;5077212;28;20214;-80
2023/11/12 02:27:39;;;;;;;1.40;1.33;;;6.10;99.90;;;;;;5078474;28;20201;-81
2023/11/12 02:30:08;;;;;;;1.52;1.42;;;6.10;99.90;;;;;;5078272;28;20198;-81
2023/11/12 02:32:35;;;;;;;2.80;2.60;;;6.00;99.90;;;;;;5078248;28;20222;-80
2023/11/12 02:35:02;;;;;;;1.88;1.70;;;6.00;99.90;;;;;;5078089;28;20197;-81
2023/11/12 02:37:30;;;;;;;0.50;0.40;;;6.10;99.90;;;;;;5078054;28;20746;-81
2023/11/12 02:39:57;;;;;;;1.67;1.55;;;6.10;99.90;;;;;;5078235;28;20198;-78
2023/11/12 02:42:27;;;;;;;6.15;4.15;;;6.10;99.90;;;;;;5078914;28;20222;-80
2023/11/12 02:44:54;;;;;;;1.65;1.58;;;6.10;99.90;;;;;;5069455;28;20205;-80
2023/11/12 02:47:21;;;;;;;0.50;0.40;;;6.10;99.90;;;;;;5108413;22;20222;-82
2023/11/12 02:50:20;;;;;;;0.82;0.82;;;6.10;99.90;;;;;;5042794;28;20277;-81
2023/11/12 02:52:49;;;;;;;4.10;3.70;;;6.10;99.90;;;;;;5047445;28;20195;-81
2023/11/12 02:55:16;;;;;;;2.45;1.55;;;6.00;99.90;;;;;;5034157;28;20215;-81
2023/11/12 02:57:45;;;;;;;2.55;1.85;;;6.00;99.90;;;;;;5041322;28;20214;-81
2023/11/12 03:00:13;;;;;;;0.50;0.40;;;5.90;99.90;;;;;;5045395;28;20191;-82
2023/11/12 03:02:40;;;;;;;1.77;1.63;;;5.90;99.90;;;;;;5051319;28;20628;-81
2023/11/12 03:05:09;;;;;;;1.63;1.52;;;5.90;99.90;;;;;;5051241;28;20199;-81
2023/11/12 03:07:35;;;;;;;2.50;2.40;;;5.80;99.90;;;;;;5051123;28;20637;-82
2023/11/12 03:10:04;;;;;;;0.95;0.95;;;5.80;99.90;;;;;;5051149;28;20280;-81
2023/11/12 03:12:31;;;;;;;0.50;0.50;;;5.80;99.90;;;;;;5050832;28;20202;-81
2023/11/12 03:14:59;;;;;;;0.60;0.60;;;5.80;99.90;;;;;;5050960;28;20235;-81
2023/11/12 03:17:26;;;;;;;0.60;0.60;;;5.80;99.90;;;;;;5051375;28;20246;-81
2023/11/12 03:19:53;;;;;;;0.50;0.40;;;5.70;99.90;;;;;;5050798;28;20191;-81
2023/11/12 03:22:21;;;;;;;2.35;2.15;;;5.70;99.90;;;;;;5051257;28;20202;-80
2023/11/12 03:24:48;;;;;;;0.80;0.60;;;5.60;99.90;;;;;;5050687;28;20202;-81
2023/11/12 03:27:14;;;;;;;0.50;0.40;;;5.60;99.90;;;;;;5051283;28;20207;-81
2023/11/12 03:29:41;;;;;;;0.60;0.60;;;5.50;99.90;;;;;;5050891;28;20199;-81
2023/11/12 03:32:10;;;;;;;0.80;0.80;;;5.50;99.90;;;;;;5051055;28;20708;-81
2023/11/12 03:34:37;;;;;;;0.50;0.50;;;5.40;99.90;;;;;;5050757;28;20673;-81
2023/11/12 03:37:04;;;;;;;2.00;1.90;;;5.40;99.90;;;;;;5052174;28;20243;-81
2023/11/12 03:39:31;;;;;;;0.50;0.40;;;5.40;99.90;;;;;;5054934;28;20643;-81
2023/11/12 03:41:58;;;;;;;0.68;0.68;;;5.40;99.90;;;;;;5054433;28;20658;-81
2023/11/12 03:44:25;;;;;;;0.50;0.40;;;5.40;99.90;;;;;;5054536;28;20199;-81
2023/11/12 03:46:51;;;;;;;2.58;2.38;;;5.30;99.90;;;;;;5052073;28;20215;-82
2023/11/12 03:49:19;;;;;;;1.77;1.67;;;5.30;99.90;;;;;;5048826;28;20281;-81
2023/11/12 03:51:47;;;;;;;3.47;1.70;;;5.30;99.90;;;;;;5044877;28;20202;-81
2023/11/12 03:54:13;;;;;;;0.50;0.40;;;5.30;99.90;;;;;;5048408;28;20195;-81
2023/11/12 03:56:40;;;;;;;2.60;2.33;;;5.30;99.90;;;;;;5054310;28;20219;-81
2023/11/12 03:59:07;;;;;;;1.20;1.20;;;5.30;99.90;;;;;;5054645;28;20674;-81
2023/11/12 04:01:34;;;;;;;2.15;2.00;;;5.30;99.90;;;;;;5054542;28;20203;-81
2023/11/12 04:04:01;;;;;;;2.25;1.80;;;5.30;99.90;;;;;;5046282;28;20282;-81
2023/11/12 04:06:29;;;;;;;0.50;0.40;;;5.30;99.90;;;;;;5054451;28;20218;-81
2023/11/12 04:08:55;;;;;;;3.47;3.15;;;5.30;99.90;;;;;;5045836;28;20309;-81
2023/11/12 04:11:22;;;;;;;5.20;3.17;;;5.30;99.90;;;;;;5046404;28;20195;-80
2023/11/12 04:13:49;;;;;;;0.73;0.73;;;5.40;99.90;;;;;;5054001;28;20206;-81
2023/11/12 04:16:16;;;;;;;0.65;0.65;;;5.40;99.90;;;;;;5054135;28;20211;-81
2023/11/12 04:18:43;;;;;;;2.80;1.10;;;5.40;99.90;;;;;;5053860;28;20293;-80
2023/11/12 04:21:10;;;;;;;1.48;1.38;;;5.40;99.90;;;;;;5054286;28;20206;-81
2023/11/12 04:23:38;;;;;;;1.20;1.20;;;5.40;99.90;;;;;;5045587;28;20200;-82
2023/11/12 04:26:06;;;;;;;1.40;1.25;;;5.40;99.90;;;;;;5046407;28;20187;-82
2023/11/12 04:28:33;;;;;;;3.20;0.98;;;5.40;99.90;;;;;;5053988;28;20552;-80
2023/11/12 04:31:00;;;;;;;2.97;2.72;;;5.50;99.90;;;;;;5053599;28;20221;-81
2023/11/12 04:33:27;;;;;;;2.35;1.95;;;5.50;99.90;;;;;;5053602;28;20384;-82
2023/11/12 04:35:54;;;;;;;1.85;1.70;;;5.50;99.90;;;;;;5053419;28;20321;-80
2023/11/12 04:38:21;;;;;;;1.33;1.33;;;5.50;99.90;;;;;;5053513;28;20197;-81
2023/11/12 04:40:49;;;;;;;3.88;3.58;;;5.60;99.90;;;;;;5053508;28;20195;-81
2023/11/12 04:43:16;;;;;;;1.50;1.38;;;5.60;99.90;;;;;;5054015;28;20563;-81
2023/11/12 04:45:44;;;;;;;1.55;1.45;;;5.60;99.90;;;;;;5053156;28;20199;-81
2023/11/12 04:48:11;;;;;;;1.10;1.10;;;5.70;99.90;;;;;;5052082;28;20230;-81
2023/11/12 04:50:38;;;;;;;1.70;1.60;;;5.70;99.90;;;;;;5053540;28;20621;-82
2023/11/12 04:53:06;;;;;;;1.63;1.52;;;5.70;99.90;;;;;;5045230;28;20202;-80
2023/11/12 04:55:33;;;;;;;1.67;1.60;;;5.70;99.90;;;;;;5053409;28;20548;-82
2023/11/12 04:58:01;;;;;;;2.28;2.15;;;5.70;99.90;;;;;;5052906;28;20246;-81
2023/11/12 05:00:27;;;;;;;0.50;0.40;;;5.80;99.90;;;;;;5053710;28;20686;-82
2023/11/12 05:02:55;;;;;;;1.02;0.93;;;5.80;99.90;;;;;;5053176;28;20670;-81
2023/11/12 05:05:21;;;;;;;0.50;0.40;;;5.80;99.90;;;;;;5053513;28;20199;-81
2023/11/12 05:07:48;;;;;;;1.65;1.55;;;5.80;99.90;;;;;;5053191;28;20215;-81
2023/11/12 05:10:15;;;;;;;0.50;0.40;;;5.80;99.90;;;;;;5053578;28;20610;-81
2023/11/12 05:12:42;;;;;;;0.50;0.40;;;5.80;99.90;;;;;;5053285;28;20290;-81
2023/11/12 05:15:11;;;;;;;1.25;1.25;;;5.80;99.90;;;;;;5053270;28;20210;-81
2023/11/12 05:17:37;;;;;;;0.77;0.63;;;5.80;99.90;;;;;;5053366;28;20214;-81
2023/11/12 05:20:05;;;;;;;0.80;0.80;;;5.90;99.90;;;;;;5050016;28;20196;-81
2023/11/12 05:22:32;;;;;;;0.50;0.40;;;5.80;99.90;;;;;;5048733;28;20199;-82
2023/11/12 05:24:59;;;;;;;1.00;0.77;;;5.90;99.90;;;;;;5053117;28;20206;-81
2023/11/12 05:27:26;;;;;;;0.50;0.40;;;5.90;99.90;;;;;;5047446;28;20733;-81
2023/11/12 05:29:53;;;;;;;0.50;0.40;;;5.90;99.90;;;;;;5050853;28;20213;-81
2023/11/12 05:32:21;;;;;;;2.45;1.45;;;5.90;99.90;;;;;;5053333;28;20722;-82
2023/11/12 05:34:48;;;;;;;0.50;0.40;;;5.90;99.90;;;;;;5054990;28;20195;-81
2023/11/12 05:37:15;;;;;;;2.47;2.38;;;5.90;99.90;;;;;;5053884;28;20221;-81
2023/11/12 05:39:41;;;;;;;0.70;0.70;;;5.90;99.90;;;;;;5053195;28;20203;-81
2023/11/12 05:42:09;;;;;;;0.50;0.40;;;5.90;99.90;;;;;;5052878;28;20195;-82
2023/11/12 05:44:35;;;;;;;4.30;2.38;;;5.90;99.90;;;;;;5053072;28;20195;-81
2023/11/12 05:47:02;;;;;;;2.85;1.45;;;5.90;99.90;;;;;;5050025;28;20230;-81
2023/11/12 05:49:30;;;;;;;0.60;0.60;;;5.90;99.90;;;;;;5041835;28;20655;-82
2023/11/12 05:51:57;;;;;;;0.60;0.60;;;5.90;99.90;;;;;;5054614;28;20206;-81
2023/11/12 05:54:24;;;;;;;0.50;0.40;;;5.90;99.90;;;;;;5053764;28;20198;-82
2023/11/12 05:56:51;;;;;;;1.75;1.67;;;5.90;99.90;;;;;;5052412;28;20230;-82
2023/11/12 05:59:17;;;;;;;0.50;0.50;;;5.90;99.90;;;;;;5052730;28;20195;-81
2023/11/12 06:01:44;;;;;;;2.55;0.93;;;5.90;99.90;;;;;;5045498;28;20210;-82
2023/11/12 06:04:11;;;;;;;0.60;0.60;;;5.90;99.90;;;;;;5049347;28;20203;-82
2023/11/12 06:06:41;;;;;;;1.25;1.15;;;5.90;99.90;;;;;;5047955;28;20222;-82
2023/11/12 06:09:08;;;;;;;3.05;1.95;;;5.80;99.90;;;;;;5052162;28;20191;-81
2023/11/12 06:11:38;;;;;;;2.15;1.98;;;5.80;99.90;;;;;;5052427;28;20293;-81
2023/11/12 06:14:05;;;;;;;4.35;1.30;;;5.80;99.90;;;;;;5052231;28;20221;-81
2023/11/12 06:16:31;;;;;;;0.50;0.50;;;5.80;99.90;;;;;;5052809;28;20219;-81
2023/11/12 06:18:59;;;;;;;0.50;0.40;;;5.80;99.90;;;;;;5052216;28;20225;-78
2023/11/12 06:21:25;;;;;;;4.20;2.97;;;5.80;99.90;;;;;;5052235;28;20559;-81
2023/11/12 06:23:54;;;;;;;1.38;1.30;;;5.80;99.90;;;;;;5051898;28;20209;-82
2023/11/12 06:26:21;;;;;;;2.38;2.17;;;5.80;99.90;;;;;;5052054;28;20215;-81
2023/11/12 06:28:48;;;;;;;2.65;2.47;;;5.80;99.90;;;;;;5051981;28;20199;-81
2023/11/12 06:31:15;;;;;;;0.50;0.40;;;5.80;99.90;;;;;;5040314;28;20192;-81
2023/11/12 06:33:43;;;;;;;1.45;1.17;;;5.80;99.90;;;;;;5047779;28;20199;-81
2023/11/12 06:36:13;;;;;;;2.17;2.00;;;5.80;99.90;;;;;;5051700;28;20205;-81
2023/11/12 06:38:40;;;;;;;0.50;0.50;;;5.80;99.90;;;;;;5051932;28;20225;-80
2023/11/12 06:41:09;;;;;;;1.13;1.05;;;5.80;99.90;;;;;;5052033;28;20234;-81
2023/11/12 06:43:36;;;;;;;1.85;1.75;;;5.80;99.90;;;;;;5052322;28;20241;-81
2023/11/12 06:46:04;;;;;;;0.55;0.55;;;5.80;99.90;;;;;;5051821;28;20203;-81
2023/11/12 06:48:31;;;;;;;0.65;0.65;;;5.80;99.90;;;;;;5037632;28;20206;-80
2023/11/12 06:50:58;;;;;;;0.73;0.73;;;5.80;99.90;;;;;;5049248;28;20682;-81
2023/11/12 06:53:24;;;;;;;0.50;0.40;;;5.80;99.90;;;;;;5051568;28;20195;-81
2023/11/12 06:55:51;;;;;;;0.50;0.40;;;5.80;99.90;;;;;;5051416;28;20202;-80
2023/11/12 06:58:20;;;;;;;1.25;0.90;;;5.80;99.90;;;;;;5052618;28;20220;-81
2023/11/12 07:00:46;;;;;;;1.42;1.33;;;5.80;99.90;;;;;;5048234;28;20257;-80
2023/11/12 07:03:13;;;;;;;1.42;1.35;;;5.80;99.90;;;;;;5043253;28;20195;-80
2023/11/12 07:05:40;;;;;;;0.50;0.40;;;5.90;99.90;;;;;;5044017;28;20198;-81
2023/11/12 07:08:08;;;;;;;1.25;1.15;;;5.90;99.90;;;;;;5051618;28;20581;-81
2023/11/12 07:10:35;;;;;;;1.00;1.00;;;5.90;99.90;;;;;;5046957;28;20585;-81
2023/11/12 07:13:02;;;;;;;1.88;0.60;;;5.90;99.90;;;;;;5054673;28;20207;-81
2023/11/12 07:15:30;;;;;;;3.30;2.78;;;5.90;99.90;;;;;;5046218;28;20287;-80
2023/11/12 07:17:56;;;;;;;1.27;1.17;;;5.80;99.90;;;;;;5064070;28;20225;-81
2023/11/12 07:20:28;;;;;;;2.45;1.35;;;5.80;99.90;;;;;;5062938;28;20195;-81
2023/11/12 07:22:56;;;;;;;0.50;0.50;;;5.80;99.90;;;;;;5065862;28;20713;-79
2023/11/12 07:25:23;;;;;;;0.50;0.50;;;5.90;99.90;;;;;;5066699;28;20201;-82
2023/11/12 07:27:50;;;;;;;0.50;0.40;;;5.90;99.90;;;;;;5058624;28;20219;-82
2023/11/12 07:30:18;;;;;;;0.50;0.50;;;6.00;99.90;;;;;;5058119;28;20294;-80
2023/11/12 07:32:46;;;;;;;0.70;0.70;;;6.00;99.90;;;;;;5058221;28;20570;-82
2023/11/12 07:35:13;;;;;;;1.10;1.00;;;6.00;99.90;;;;;;5055355;28;20199;-81
2023/11/12 07:37:41;;;;;;;0.50;0.40;;;6.10;99.90;;;;;;5052961;28;20230;-81
2023/11/12 07:40:10;;;;;;;3.17;3.03;;;6.10;99.90;;;;;;5058139;28;20241;-82
2023/11/12 07:42:38;;;;;;;3.90;2.05;;;6.20;99.90;;;;;;5058406;28;20284;-80
2023/11/12 07:45:08;;;;;;;0.50;0.50;;;6.20;99.90;;;;;;5057900;28;20267;-81
2023/11/12 07:47:35;;;;;;;0.50;0.40;;;6.20;99.90;;;;;;5058505;28;20219;-81
2023/11/12 07:50:03;;;;;;;0.50;0.40;;;6.20;99.90;;;;;;5058460;28;20211;-80
2023/11/12 07:52:31;;;;;;;1.30;0.52;;;6.30;99.90;;;;;;5050330;28;20202;-81
2023/11/12 07:54:58;;;;;;;1.33;1.33;;;6.30;99.90;;;;;;5050164;28;20195;-81
2023/11/12 07:57:25;;;;;;;1.42;1.33;;;6.40;99.90;;;;;;5058135;28;20300;-82
2023/11/12 07:59:52;;;;;;;0.50;0.40;;;6.50;99.90;;;;;;5050847;28;20195;-81
2023/11/12 08:02:20;;;;;;;0.88;0.88;;;6.50;99.90;;;;;;5057930;28;20702;-81
2023/11/12 08:04:47;;;;;;;1.65;0.88;;;6.50;99.90;;;;;;5058234;28;20624;-81
2023/11/12 08:07:15;;;;;;;2.65;1.98;;;6.50;99.90;;;;;;5049823;28;20250;-81
2023/11/12 08:09:45;;;;;;;0.50;0.40;;;6.50;99.90;;;;;;5052226;28;20290;-81
2023/11/12 08:12:13;;;;;;;2.45;0.85;;;6.70;99.90;;;;;;5056524;28;20291;-81
2023/11/12 08:14:40;;;;;;;0.50;0.40;;;6.80;99.90;;;;;;5058565;28;20609;-81
2023/11/12 08:17:08;;;;;;;0.60;0.60;;;6.90;99.90;;;;;;5050080;28;20250;-81
2023/11/12 08:19:35;;;;;;;0.70;0.55;;;7.00;99.90;;;;;;5058525;28;20732;-82
2023/11/12 08:22:02;;;;;;;0.50;0.50;;;7.10;99.90;;;;;;5050338;28;20195;-81
2023/11/12 08:24:30;;;;;;;0.55;0.55;;;7.40;99.90;;;;;;5054811;28;20199;-81
2023/11/12 08:26:57;;;;;;;2.80;1.10;;;7.80;99.90;;;;;;5055151;28;20219;-80
2023/11/12 08:29:24;;;;;;;0.50;0.40;;;8.30;99.90;;;;;;5047309;28;20199;-81
2023/11/12 08:31:51;;;;;;;2.05;1.95;;;8.40;99.90;;;;;;5047206;28;20203;-80
2023/11/12 08:34:21;;;;;;;0.95;0.85;;;8.30;99.90;;;;;;5054540;28;20217;-81
2023/11/12 08:36:49;;;;;;;1.08;0.60;;;8.90;99.90;;;;;;5048336;28;20290;-81
2023/11/12 08:39:16;;;;;;;1.23;1.23;;;9.90;99.90;;;;;;5053300;28;20620;-81
2023/11/12 08:41:46;;;;;;;0.50;0.40;;;11.10;99.90;;;;;;5055019;28;20199;-82
2023/11/12 08:44:13;;;;;;;1.70;1.50;;;12.30;99.90;;;;;;5038792;28;20481;-82
2023/11/12 08:46:39;;;;;;;1.37;1.27;;;13.00;99.90;;;;;;5050249;28;20498;-82
2023/11/12 08:49:07;;;;;;;0.60;0.60;;;12.90;99.90;;;;;;5052451;28;20449;-82
2023/11/12 08:51:34;;;;;;;0.60;0.50;;;12.60;99.90;;;;;;5055841;28;20441;-82
2023/11/12 08:54:01;;;;;;;0.50;0.50;;;12.50;99.90;;;;;;5056152;28;20438;-81
2023/11/12 08:56:29;;;;;;;8.00;1.47;;;12.10;99.90;;;;;;5046345;28;21008;-81
2023/11/12 08:58:57;;;;;;;0.50;0.40;;;12.10;99.90;;;;;;5054676;28;20987;-81
2023/11/12 09:01:24;;;;;;;3.05;0.73;;;11.90;99.90;;;;;;5053947;28;20808;-81
2023/11/12 09:03:52;;;;;;;0.60;0.60;;;11.70;99.90;;;;;;5054542;28;20199;-82
2023/11/12 09:06:19;;;;;;;1.00;0.60;;;11.50;99.90;;;;;;5051826;28;20504;-81
2023/11/12 09:08:47;;;;;;;0.50;0.40;;;11.40;99.90;;;;;;5048444;28;20445;-81
2023/11/12 09:11:14;;;;;;;0.50;0.50;;;11.40;99.90;;;;;;5054503;28;20445;-82
2023/11/12 09:13:42;;;;;;;0.60;0.60;;;11.50;99.90;;;;;;5046574;28;20199;-82
2023/11/12 09:16:10;;;;;;;0.63;0.63;;;11.30;99.90;;;;;;5045789;28;20225;-81
2023/11/12 09:18:38;;;;;;;1.45;0.77;;;10.60;99.90;;;;;;5054358;28;20219;-82
2023/11/12 09:21:05;;;;;;;1.35;0.93;;;10.40;99.90;;;;;;5054204;28;20682;-81
2023/11/12 09:23:32;;;;;;;1.13;1.13;;;10.20;99.90;;;;;;5046270;28;20655;-83
2023/11/12 09:25:59;;;;;;;1.60;1.50;;;10.10;99.90;;;;;;5055470;28;20199;-82
2023/11/12 09:28:26;;;;;;;1.35;0.90;;;10.00;99.90;;;;;;5055062;28;20187;-82
2023/11/12 09:30:52;;;;;;;0.50;0.40;;;10.00;99.90;;;;;;5048611;28;20203;-81
2023/11/12 09:33:20;;;;;;;0.50;0.40;;;10.20;99.90;;;;;;5054440;28;20203;-82
2023/11/12 09:35:47;;;;;;;1.58;0.70;;;10.40;99.90;;;;;;5056234;28;20202;-82
2023/11/12 09:38:14;;;;;;;0.93;0.90;;;10.40;99.90;;;;;;5061000;28;20245;-81
2023/11/12 09:40:42;;;;;;;2.05;1.15;;;10.60;99.90;;;;;;5062556;28;20266;-82
2023/11/12 09:43:12;;;;;;;0.50;0.40;;;10.80;99.90;;;;;;5061770;28;20241;-82
2023/11/12 09:45:43;;;;;;;0.50;0.40;;;11.10;99.90;;;;;;5062666;28;20448;-82
2023/11/12 09:48:18;;;;;;;0.63;0.60;;;11.20;99.90;;;;;;5059902;28;20465;-83
2023/11/12 09:50:48;;;;;;;0.70;0.68;;;10.60;99.90;;;;;;5061987;28;20206;-82
2023/11/12 09:53:15;;;;;;;0.50;0.40;;;10.50;99.90;;;;;;5061066;28;20684;-82
2023/11/12 09:55:45;;;;;;;0.50;0.40;;;10.40;99.90;;;;;;5061793;28;20446;-83
2023/11/12 09:58:12;;;;;;;0.80;0.80;;;10.60;99.90;;;;;;5061890;28;20695;-82
2023/11/12 10:00:38;;;;;;;0.52;0.52;;;10.80;99.90;;;;;;5057609;28;20450;-83
2023/11/12 10:03:08;;;;;;;0.50;0.40;;;10.70;99.90;;;;;;5044932;28;20202;-82
2023/11/12 10:05:35;;;;;;;0.50;0.40;;;10.70;99.90;;;;;;5040851;28;20462;-83
2023/11/12 10:08:05;;;;;;;0.50;0.40;;;10.80;99.90;;;;;;5057083;28;20514;-82
2023/11/12 10:10:33;;;;;;;0.53;0.47;;;10.80;99.90;;;;;;5069497;28;20505;-81
2023/11/12 10:13:04;;;;;;;2.90;1.60;;;10.90;99.90;;;;;;5059728;28;20449;-81
2023/11/12 10:15:34;;;;;;;1.73;1.00;;;10.80;99.90;;;;;;5068403;28;20206;-82
2023/11/12 10:18:01;;;;;;;0.50;0.40;;;10.70;99.90;;;;;;5060742;28;20511;-79
2023/11/12 10:20:30;;;;;;;0.50;0.40;;;10.40;99.90;;;;;;5056886;28;20199;-81
2023/11/12 10:22:57;;;;;;;0.60;0.50;;;10.50;99.90;;;;;;5053286;28;20210;-81
2023/11/12 10:25:39;;;;;;;0.50;0.40;;;10.40;99.90;;;;;;5060806;28;20203;-81
2023/11/12 10:28:07;;;;;;;0.50;0.40;;;10.50;99.90;;;;;;5042972;28;20650;-81
2023/11/12 10:30:35;;;;;;;0.50;0.40;;;10.60;99.90;;;;;;5058970;28;20450;-82
2023/11/12 10:33:16;;;;;;;0.57;0.53;;;11.10;99.90;;;;;;5056954;28;20513;-82
2023/11/12 10:35:44;;;;;;;0.50;0.40;;;11.70;99.90;;;;;;5045236;28;20991;-81
2023/11/12 10:38:12;;;;;;;0.50;0.40;;;11.90;99.90;;;;;;5045209;28;20483;-81
2023/11/12 10:40:58;;;;;;;0.50;0.40;;;11.50;99.90;;;;;;5040594;28;20449;-81
2023/11/12 10:43:25;;;;;;;1.13;1.03;;;11.50;99.90;;;;;;5057074;28;20451;-81
2023/11/12 10:45:56;;;;;;;0.50;0.40;;;11.20;99.90;;;;;;5053513;28;20447;-81
2023/11/12 10:48:29;;;;;;;1.00;0.90;;;10.70;99.90;;;;;;5056396;28;20203;-81
2023/11/12 10:50:57;;;;;;;0.50;0.40;;;10.40;99.90;;;;;;5058389;28;20433;-81
2023/11/12 10:53:27;;;;;;;0.60;0.60;;;10.20;99.90;;;;;;5059045;28;20673;-81
2023/11/12 10:55:56;;;;;;;0.70;0.70;;;10.30;99.90;;;;;;5058520;28;20222;-81
2023/11/12 10:58:25;;;;;;;0.50;0.40;;;10.20;99.90;;;;;;5057617;28;20477;-81
2023/11/12 11:00:56;;;;;;;1.63;0.73;;;10.20;99.90;;;;;;5057402;28;20442;-81
2023/11/12 11:03:25;;;;;;;0.50;0.50;;;10.10;99.90;;;;;;5055904;28;20199;-81
2023/11/12 11:05:53;;;;;;;0.93;0.93;;;10.00;99.90;;;;;;5056653;28;20468;-82
2023/11/12 11:08:20;;;;;;;0.50;0.40;;;10.10;99.90;;;;;;5054439;28;20462;-81
2023/11/12 11:10:47;;;;;;;0.50;0.40;;;10.20;99.90;;;;;;5048204;28;20509;-80
2023/11/12 11:13:15;;;;;;;0.50;0.40;;;10.30;99.90;;;;;;5055256;28;20290;-81
2023/11/12 11:15:43;;;;;;;0.50;0.50;;;10.30;99.90;;;;;;5046422;28;20195;-81
2023/11/12 11:18:50;;;;;;;0.50;0.40;;;10.30;99.90;;;;;;5054972;28;20219;-81
2023/11/12 11:21:17;;;;;;;0.50;0.40;;;10.50;99.90;;;;;;5051941;28;20195;-81
2023/11/12 11:23:47;;;;;;;0.60;0.50;;;10.90;99.90;;;;;;5055081;28;20199;-80
2023/11/12 11:26:39;;;;;;;0.60;0.53;;;11.10;99.90;;;;;;5055274;28;20488;-81
2023/11/12 11:29:13;;;;;;;0.50;0.40;;;11.20;99.90;;;;;;5050382;28;20443;-81
2023/11/12 11:31:42;;;;;;;1.17;1.17;;;11.30;99.90;;;;;;5054479;28;20437;-81
2023/11/12 11:34:12;;;;;;;0.50;0.40;;;11.50;99.90;;;;;;5054776;28;20445;-80
2023/11/12 11:36:42;;;;;;;1.20;1.13;;;12.10;99.90;;;;;;5055070;28;20463;-81
2023/11/12 11:39:25;;;;;;;0.50;0.50;;;13.10;99.90;;;;;;5054751;28;20477;-81
2023/11/12 11:42:17;;;;;;;0.50;0.40;;;13.40;99.90;;;;;;5048548;28;20464;-81
2023/11/12 11:44:45;;;;;;;0.60;0.50;;;13.70;99.90;;;;;;5047299;28;20457;-81
2023/11/12 11:47:14;;;;;;;0.50;0.40;;;13.50;99.90;;;;;;5054890;28;20505;-80
2023/11/12 11:49:43;;;;;;;1.27;1.17;;;12.90;99.90;;;;;;5054823;28;20466;-81
2023/11/12 11:52:16;;;;;;;0.50;0.40;;;12.70;99.90;;;;;;5055551;28;20510;-81
2023/11/12 11:54:43;;;;;;;0.77;0.77;;;12.60;99.90;;;;;;5047627;28;20528;-82
2023/11/12 11:57:13;;;;;;;2.53;2.43;;;12.50;99.90;;;;;;5055385;28;20472;-82
2023/11/12 11:59:43;;;;;;;0.50;0.40;;;12.10;99.90;;;;;;5059166;28;20561;-82
2023/11/12 12:02:15;;;;;;;0.50;0.40;;;12.00;99.90;;;;;;5058984;28;20507;-81
2023/11/12 12:04:47;;;;;;;0.50;0.40;;;11.90;99.90;;;;;;5051902;28;20437;-82
2023/11/12 12:07:24;;;;;;;0.50;0.40;;;11.90;99.90;;;;;;5060422;28;20965;-82
2023/11/12 12:09:52;;;;;;;0.50;0.40;;;11.90;99.90;;;;;;5051810;28;20442;-81
2023/11/12 12:12:19;;;;;;;0.50;0.40;;;11.70;99.90;;;;;;5058844;28;20438;-82
2023/11/12 12:14:46;;;;;;;0.50;0.40;;;11.50;99.90;;;;;;5050946;28;20868;-82
2023/11/12 12:17:13;;;;;;;0.50;0.40;;;11.50;99.90;;;;;;5052208;28;20223;-82
2023/11/12 12:19:41;;;;;;;0.50;0.40;;;11.40;99.90;;;;;;5058234;28;20481;-82
2023/11/12 12:22:09;;;;;;;0.60;0.53;;;11.20;99.90;;;;;;5065374;28;20448;-80
2023/11/12 12:24:37;;;;;;;0.50;0.40;;;11.00;99.90;;;;;;5065995;28;20450;-82
2023/11/12 12:27:09;;;;;;;1.37;1.27;;;10.80;99.90;;;;;;5064647;28;20556;-82
2023/11/12 12:29:38;;;;;;;0.50;0.50;;;10.80;99.90;;;;;;5066324;28;20453;-83
2023/11/12 12:32:17;;;;;;;1.23;0.90;;;10.60;99.90;;;;;;5066196;28;20218;-80
2023/11/12 12:34:45;;;;;;;0.50;0.40;;;10.40;99.90;;;;;;5064396;28;20453;-81
2023/11/12 12:37:20;;;;;;;0.50;0.40;;;10.50;99.90;;;;;;5062490;28;20508;-81
2023/11/12 12:39:52;;;;;;;0.60;0.50;;;10.80;99.90;;;;;;5052192;28;20560;-82
2023/11/12 12:42:21;;;;;;;0.50;0.40;;;11.00;99.90;;;;;;5060519;28;20258;-80
2023/11/12 12:44:49;;;;;;;0.50;0.40;;;11.10;99.90;;;;;;5054669;28;20206;-82
2023/11/12 12:47:30;;;;;;;1.57;1.43;;;11.20;99.90;;;;;;5062722;28;20488;-82
2023/11/12 12:49:59;;;;;;;1.17;0.60;;;11.10;99.90;;;;;;5057150;28;20433;-82
2023/11/12 12:52:27;;;;;;;0.60;0.50;;;11.30;99.90;;;;;;5064803;28;20876;-81
2023/11/12 12:54:54;;;;;;;0.50;0.40;;;11.50;99.90;;;;;;5063855;28;20957;-82
2023/11/12 12:57:23;;;;;;;0.50;0.40;;;11.90;99.90;;;;;;5062161;28;20849;-81